Time;durP1;ratioP1;P1;durP2;ratioP2;P2;SDS_P1;SDS_P2;PMS_P1;PMS_P2;Temp;Humidity;BMP_temperature;BMP_pressure;BME280_temperature;BME280_humidity;BME280_pressure;Samples;Min_cycle;Max_cycle;Signal;HPM_P1;HPM_P2
2021/01/18 00:02:22;;;;;;;13.75;4.80;;;27.20;75.10;;;;;;6262447;22;20057;-92
2021/01/18 00:04:49;;;;;;;9.20;4.05;;;27.10;75.20;;;;;;6298122;22;19991;-93
2021/01/18 00:07:17;;;;;;;12.23;4.10;;;27.10;75.80;;;;;;6323612;22;20006;-91
2021/01/18 00:10:04;;;;;;;13.48;3.90;;;27.00;75.30;;;;;;6300818;22;19996;-91
2021/01/18 00:12:47;;;;;;;12.20;4.32;;;27.00;76.50;;;;;;6325487;22;19994;-93
2021/01/18 00:19:12;;;;;;;12.40;4.78;;;26.80;75.30;;;;;;6359747;22;20080;-91
2021/01/18 00:23:06;;;;;;;;;;;;;;;;;;;;;
2021/01/18 00:25:57;;;;;;;9.07;3.92;;;26.80;77.40;;;;;;6167675;23;20197;-91
2021/01/18 00:29:24;;;;;;;10.65;4.10;;;26.80;77.60;;;;;;6160262;22;20005;-91
2021/01/18 00:32:48;;;;;;;7.32;3.33;;;26.70;77.20;;;;;;6284134;22;20218;31
2021/01/18 00:35:25;;;;;;;6.35;3.20;;;26.80;77.70;;;;;;6262355;23;20035;-90
2021/01/18 00:38:14;;;;;;;8.05;3.25;;;26.80;79.00;;;;;;6239711;23;20094;-90
2021/01/18 00:40:56;;;;;;;9.77;3.22;;;26.70;77.40;;;;;;6265146;22;20168;-91
2021/01/18 00:43:44;;;;;;;5.38;2.92;;;26.70;79.30;;;;;;6242049;23;20000;-90
2021/01/18 00:48:55;;;;;;;7.30;3.15;;;26.60;79.30;;;;;;6350021;22;20025;-90
2021/01/18 00:51:24;;;;;;;5.38;3.28;;;26.60;79.80;;;;;;6330412;22;19994;-89
2021/01/18 00:54:32;;;;;;;4.85;2.95;;;26.60;78.30;;;;;;6327335;22;20069;-90
2021/01/18 00:57:06;;;;;;;6.07;3.80;;;26.60;78.80;;;;;;6229337;23;20020;-90
2021/01/18 01:00:00;;;;;;;5.72;3.88;;;26.60;77.00;;;;;;6233480;23;19997;-88
2021/01/18 01:05:09;;;;;;;7.63;3.97;;;26.60;78.20;;;;;;6332488;22;20019;-88
2021/01/18 01:07:52;;;;;;;6.72;4.03;;;26.70;78.40;;;;;;6273093;22;20003;-89
2021/01/18 01:10:35;;;;;;;7.00;4.30;;;26.70;77.90;;;;;;6323312;22;20271;-89
2021/01/18 01:13:14;;;;;;;7.68;4.63;;;26.60;78.20;;;;;;6320939;22;19995;-88
2021/01/18 01:15:45;;;;;;;8.98;4.57;;;26.60;79.70;;;;;;6292608;22;20009;-89
2021/01/18 01:18:25;;;;;;;8.10;4.35;;;26.50;78.50;;;;;;6318926;22;20048;-89
2021/01/18 01:21:04;;;;;;;6.28;3.83;;;26.50;80.00;;;;;;6294536;22;20018;-88
2021/01/18 01:23:45;;;;;;;11.18;4.40;;;26.40;78.80;;;;;;6270203;22;20012;-88
2021/01/18 01:26:51;;;;;;;5.90;4.00;;;26.30;79.10;;;;;;6297859;22;19999;-89
2021/01/18 01:33:11;;;;;;;7.07;3.22;;;26.30;79.60;;;;;;6187325;23;20325;-88
2021/01/18 01:35:45;;;;;;;10.50;3.47;;;26.30;79.90;;;;;;6209288;23;20011;-89
2021/01/18 01:38:49;;;;;;;10.38;3.28;;;26.20;79.10;;;;;;6203413;23;20008;-89
2021/01/18 01:41:37;;;;;;;6.10;3.53;;;26.20;79.40;;;;;;6151704;23;20001;-89
2021/01/18 01:44:17;;;;;;;5.57;3.40;;;26.20;78.70;;;;;;6285384;22;20011;-87
2021/01/18 01:47:06;;;;;;;5.40;3.20;;;26.20;79.60;;;;;;6305032;22;20041;-89
2021/01/18 01:49:38;;;;;;;;;;;26.20;78.80;;;;;;6248162;22;20276;-88
2021/01/18 01:52:09;;;;;;;5.13;3.10;;;26.20;79.20;;;;;;6299794;22;19958;-87
2021/01/18 01:54:46;;;;;;;4.97;3.25;;;26.20;79.30;;;;;;6295422;22;20002;-87
2021/01/18 01:57:16;;;;;;;7.43;3.17;;;26.20;79.70;;;;;;6299993;22;20007;-87
2021/01/18 02:00:20;;;;;;;5.47;3.50;;;26.20;79.20;;;;;;6323142;22;20007;-90
2021/01/18 02:02:54;;;;;;;;;;;26.10;80.40;;;;;;6149039;23;20001;-89
2021/01/18 02:06:02;;;;;;;7.13;3.35;;;26.00;80.40;;;;;;6325042;22;19935;-89
2021/01/18 02:08:33;;;;;;;4.25;3.47;;;26.00;79.70;;;;;;6295662;22;20003;-87
2021/01/18 02:14:54;;;;;;;5.70;3.78;;;25.80;80.60;;;;;;6319954;22;19994;-88
2021/01/18 02:18:07;;;;;;;5.40;3.70;;;25.80;80.70;;;;;;6294137;22;20048;-88
2021/01/18 02:20:38;;;;;;;8.07;4.10;;;25.80;80.90;;;;;;6296708;22;20058;-87
2021/01/18 02:27:01;;;;;;;7.95;4.10;;;25.70;81.60;;;;;;6353854;22;20006;-88
2021/01/18 02:30:05;;;;;;;7.40;4.03;;;25.70;82.20;;;;;;6326972;22;20036;-88
2021/01/18 02:33:16;;;;;;;8.13;3.92;;;25.60;81.30;;;;;;6250686;22;19998;-89
2021/01/18 02:36:01;;;;;;;5.25;3.90;;;25.60;81.90;;;;;;6172311;23;20056;-87
2021/01/18 02:38:54;;;;;;;9.93;4.68;;;25.60;81.30;;;;;;6199419;23;19997;-87
2021/01/18 02:41:39;;;;;;;5.90;3.50;;;25.60;82.40;;;;;;6304829;22;20218;-88
2021/01/18 02:44:22;;;;;;;4.00;3.40;;;25.50;82.10;;;;;;6289867;22;20223;-88
2021/01/18 02:46:58;;;;;;;7.55;3.63;;;25.50;80.50;;;;;;6239579;22;20004;-89
2021/01/18 02:49:59;;;;;;;;;;;;;;;;;;;;;
2021/01/18 02:53:00;;;;;;;4.28;3.42;;;25.40;80.90;;;;;;6268461;22;20000;-89
2021/01/18 02:55:53;;;;;;;6.82;3.80;;;25.40;81.40;;;;;;6262192;22;20007;-88
2021/01/18 02:58:55;;;;;;;6.10;3.63;;;25.30;82.00;;;;;;6264337;22;20002;-88
2021/01/18 03:02:20;;;;;;;5.82;3.15;;;25.30;81.90;;;;;;6288454;22;19996;-88
2021/01/18 03:08:31;;;;;;;3.83;3.30;;;25.20;82.40;;;;;;6121922;23;20052;-88
2021/01/18 03:11:29;;;;;;;5.43;3.38;;;25.20;81.90;;;;;;6168568;23;19993;-89
2021/01/18 03:14:30;;;;;;;4.43;3.08;;;25.10;82.30;;;;;;6138241;23;20002;-90
2021/01/18 03:17:00;;;;;;;7.03;3.50;;;25.20;82.20;;;;;;6108076;23;20014;-90
2021/01/18 03:19:53;;;;;;;5.00;2.88;;;25.10;82.70;;;;;;6108867;23;20303;-88
2021/01/18 03:22:28;;;;;;;6.05;3.30;;;25.10;82.90;;;;;;6136536;23;20002;-89
2021/01/18 03:25:08;;;;;;;9.38;3.80;;;25.10;83.20;;;;;;6166141;23;20001;-91
2021/01/18 03:28:02;;;;;;;7.50;3.50;;;24.90;83.90;;;;;;6144212;23;20011;-89
2021/01/18 03:30:51;;;;;;;7.20;3.55;;;24.90;83.60;;;;;;6165332;23;20337;-88
2021/01/18 03:33:28;;;;;;;6.25;3.85;;;24.90;83.80;;;;;;6168910;23;20053;-88
2021/01/18 03:35:57;;;;;;;6.22;3.30;;;24.90;83.00;;;;;;6165611;23;20388;-90
2021/01/18 03:38:32;;;;;;;7.85;4.22;;;24.90;83.20;;;;;;6157488;23;20276;-90
2021/01/18 03:41:05;;;;;;;6.75;3.72;;;24.90;83.80;;;;;;6198908;23;20001;-88
2021/01/18 03:43:31;;;;;;;6.05;3.65;;;24.90;83.20;;;;;;6172892;23;20020;-88
2021/01/18 03:45:59;;;;;;;5.43;3.92;;;24.90;82.80;;;;;;6255499;23;20071;-90
2021/01/18 03:48:29;;;;;;;8.75;5.10;;;25.00;81.70;;;;;;6303275;22;20195;-87
2021/01/18 03:50:59;;;;;;;8.57;4.20;;;25.10;83.20;;;;;;6321678;22;20003;-89
2021/01/18 03:53:25;;;;;;;5.57;3.50;;;25.00;83.10;;;;;;6293920;22;20002;-89
2021/01/18 03:55:52;;;;;;;8.05;4.13;;;24.90;83.20;;;;;;6319361;22;20076;-89
2021/01/18 03:58:19;;;;;;;7.68;3.60;;;24.90;83.80;;;;;;6294727;22;20010;-90
2021/01/18 04:00:48;;;;;;;7.72;3.67;;;24.90;83.30;;;;;;6293360;22;19991;-89
2021/01/18 04:03:19;;;;;;;5.07;3.13;;;25.00;83.60;;;;;;6294531;22;19995;-89
2021/01/18 04:05:47;;;;;;;4.38;3.13;;;25.00;82.40;;;;;;6295326;22;19999;-89
2021/01/18 04:08:16;;;;;;;6.85;3.20;;;25.00;83.00;;;;;;6297723;22;20000;-87
2021/01/18 04:10:45;;;;;;;4.78;3.08;;;25.00;83.50;;;;;;6322402;22;19987;-91
2021/01/18 04:13:12;;;;;;;10.13;3.42;;;24.90;83.10;;;;;;6297857;22;20000;-90
2021/01/18 04:15:39;;;;;;;4.47;3.30;;;24.90;83.40;;;;;;6323237;22;20011;-88
2021/01/18 04:18:14;;;;;;;4.30;2.70;;;24.80;83.50;;;;;;6294523;22;20047;-90
2021/01/18 04:20:43;;;;;;;5.72;3.30;;;24.90;82.80;;;;;;6294619;22;19998;-90
2021/01/18 04:23:12;;;;;;;4.00;2.83;;;24.90;83.30;;;;;;6294067;22;20041;-91
2021/01/18 04:25:39;;;;;;;5.60;3.17;;;24.80;82.70;;;;;;6320216;22;19992;-91
2021/01/18 04:28:13;;;;;;;4.80;3.13;;;24.80;83.50;;;;;;6294022;22;19999;-89
2021/01/18 04:30:42;;;;;;;5.72;3.28;;;24.80;83.00;;;;;;6322024;22;20333;-88
2021/01/18 04:33:27;;;;;;;8.43;3.90;;;24.80;83.00;;;;;;6321864;22;19995;-88
2021/01/18 04:36:06;;;;;;;5.50;3.50;;;24.80;83.00;;;;;;6296204;22;20019;-88
2021/01/18 04:38:33;;;;;;;4.47;3.15;;;24.80;82.90;;;;;;6294115;22;20036;-89
2021/01/18 04:41:00;;;;;;;4.90;3.45;;;24.80;83.60;;;;;;6320987;22;19991;-89
2021/01/18 04:43:43;;;;;;;7.50;3.13;;;24.80;82.90;;;;;;6332671;22;20066;-88
2021/01/18 04:46:14;;;;;;;7.10;3.70;;;24.60;83.30;;;;;;6324486;22;20006;-90
2021/01/18 04:48:41;;;;;;;4.30;3.17;;;24.50;84.50;;;;;;6353523;22;19991;-89
2021/01/18 04:51:19;;;;;;;4.18;3.30;;;24.50;84.70;;;;;;6354167;22;19999;-90
2021/01/18 04:53:53;;;;;;;4.32;3.25;;;24.40;84.90;;;;;;6352844;22;20333;-90
2021/01/18 04:56:58;;;;;;;4.30;3.00;;;24.40;84.80;;;;;;6353913;22;20343;-89
2021/01/18 04:59:37;;;;;;;6.32;2.80;;;24.50;84.50;;;;;;6326053;22;20006;-88
2021/01/18 05:02:09;;;;;;;5.03;3.05;;;24.50;84.10;;;;;;6325874;22;20190;-89
2021/01/18 05:04:41;;;;;;;3.30;2.85;;;24.60;84.20;;;;;;6326012;22;20196;-89
2021/01/18 05:07:23;;;;;;;4.85;2.55;;;24.60;83.70;;;;;;6326147;22;19998;-90
2021/01/18 05:10:06;;;;;;;4.53;2.90;;;24.50;83.30;;;;;;6326231;22;20312;-87
2021/01/18 05:12:42;;;;;;;4.78;3.22;;;24.60;83.20;;;;;;6328005;22;19995;-89
2021/01/18 05:15:12;;;;;;;6.30;3.47;;;24.50;82.70;;;;;;6355962;22;19983;-87
2021/01/18 05:17:46;;;;;;;4.53;3.13;;;24.60;83.10;;;;;;6355692;22;19991;-87
2021/01/18 05:20:18;;;;;;;4.00;2.90;;;24.60;83.10;;;;;;6354169;22;19982;-90
2021/01/18 05:22:52;;;;;;;4.97;3.15;;;24.50;82.80;;;;;;6354903;22;20268;-90
2021/01/18 05:25:23;;;;;;;4.47;3.10;;;24.40;82.20;;;;;;6354635;22;19983;-88
2021/01/18 05:28:10;;;;;;;4.57;2.92;;;24.50;81.40;;;;;;6326683;22;20002;-91
2021/01/18 05:30:43;;;;;;;3.38;2.67;;;24.50;80.40;;;;;;6326336;22;20054;-91
2021/01/18 05:33:13;;;;;;;4.55;2.50;;;24.50;79.70;;;;;;6355418;22;19998;-88
2021/01/18 05:35:48;;;;;;;3.97;2.60;;;24.50;79.30;;;;;;6352143;22;20005;-88
2021/01/18 05:38:19;;;;;;;4.70;2.95;;;24.50;78.80;;;;;;6352548;22;20003;-88
2021/01/18 05:40:48;;;;;;;3.53;2.97;;;24.50;79.00;;;;;;6352074;22;20022;-89
2021/01/18 05:43:17;;;;;;;5.30;2.80;;;24.50;79.20;;;;;;6323841;22;20021;-91
2021/01/18 05:45:46;;;;;;;4.03;3.38;;;24.50;78.90;;;;;;6352183;22;19987;-89
2021/01/18 05:48:24;;;;;;;5.38;2.70;;;24.50;79.10;;;;;;6325021;22;20014;-88
2021/01/18 05:50:56;;;;;;;5.05;2.80;;;24.50;79.40;;;;;;6326595;22;19995;-91
2021/01/18 05:53:24;;;;;;;;;;;24.50;78.90;;;;;;6353169;22;19995;-90
2021/01/18 05:56:12;;;;;;;6.97;2.72;;;24.50;79.00;;;;;;6354341;22;19938;-89
2021/01/18 05:58:39;;;;;;;3.88;2.80;;;24.50;78.60;;;;;;6304821;22;20002;-90
2021/01/18 06:01:06;;;;;;;4.28;3.42;;;24.50;78.60;;;;;;6352166;22;19999;-89
2021/01/18 06:03:33;;;;;;;4.90;3.10;;;24.50;78.70;;;;;;6355676;22;19987;-88
2021/01/18 06:06:02;;;;;;;3.92;2.80;;;24.40;78.70;;;;;;6352743;22;20018;-91
2021/01/18 06:08:31;;;;;;;5.32;3.30;;;24.40;78.80;;;;;;6328811;22;19999;-89
2021/01/18 06:11:07;;;;;;;5.47;3.03;;;24.40;79.70;;;;;;6354438;22;19996;-87
2021/01/18 06:13:34;;;;;;;3.22;2.75;;;24.40;80.50;;;;;;6328109;22;20033;-85
2021/01/18 06:16:11;;;;;;;6.10;3.20;;;24.30;80.00;;;;;;6325250;22;19999;-89
2021/01/18 06:18:42;;;;;;;4.97;2.83;;;24.30;80.10;;;;;;6325950;22;20226;-89
2021/01/18 06:21:12;;;;;;;4.45;3.10;;;24.30;80.50;;;;;;6353489;22;19991;-91
2021/01/18 06:23:40;;;;;;;7.07;3.10;;;24.20;80.70;;;;;;6352620;22;20006;-90
2021/01/18 06:26:07;;;;;;;5.47;3.03;;;24.20;81.10;;;;;;6325394;22;20082;-89
2021/01/18 06:28:49;;;;;;;3.80;2.80;;;24.20;81.70;;;;;;6352244;22;19995;-89
2021/01/18 06:31:15;;;;;;;4.20;3.20;;;24.20;81.20;;;;;;6325876;22;20054;-90
2021/01/18 06:33:49;;;;;;;7.00;3.45;;;24.10;81.80;;;;;;6324327;22;19999;-89
2021/01/18 06:36:26;;;;;;;4.55;3.08;;;24.10;81.00;;;;;;6324065;22;19999;-88
2021/01/18 06:38:59;;;;;;;7.75;3.53;;;24.10;81.10;;;;;;6324105;22;20010;-89
2021/01/18 06:41:28;;;;;;;6.00;3.45;;;24.10;80.70;;;;;;6351468;22;19995;-90
2021/01/18 06:43:55;;;;;;;5.25;3.28;;;24.10;81.40;;;;;;6351517;22;20011;-90
2021/01/18 06:46:30;;;;;;;5.32;2.75;;;24.10;81.00;;;;;;6324889;22;19991;-89
2021/01/18 06:48:57;;;;;;;4.25;3.10;;;24.20;80.50;;;;;;6323042;22;19999;-88
2021/01/18 06:51:25;;;;;;;8.02;2.85;;;24.20;79.60;;;;;;6325179;22;19991;-90
2021/01/18 06:53:54;;;;;;;3.22;2.47;;;24.30;79.00;;;;;;6352912;22;19995;-88
2021/01/18 06:56:25;;;;;;;5.20;2.55;;;24.30;78.80;;;;;;6350944;22;19987;-88
2021/01/18 06:59:09;;;;;;;3.75;2.58;;;24.40;77.70;;;;;;6352195;22;20058;-90
2021/01/18 07:01:37;;;;;;;3.60;2.53;;;24.40;77.30;;;;;;6350994;22;20038;-90
2021/01/18 07:04:07;;;;;;;3.38;2.33;;;24.40;77.00;;;;;;6354550;22;20279;-90
2021/01/18 07:06:41;;;;;;;3.88;2.60;;;24.50;76.90;;;;;;6323889;22;20017;-88
2021/01/18 07:09:11;;;;;;;4.30;2.90;;;24.50;76.60;;;;;;6351966;22;20264;-90
2021/01/18 07:11:38;;;;;;;3.75;2.65;;;24.50;76.10;;;;;;6350317;22;19986;-88
2021/01/18 07:14:10;;;;;;;3.33;2.20;;;24.60;76.00;;;;;;6326626;22;20179;-88
2021/01/18 07:16:40;;;;;;;4.18;2.70;;;24.60;75.80;;;;;;6350129;22;19983;-90
2021/01/18 07:19:08;;;;;;;3.60;2.42;;;24.60;75.10;;;;;;6322626;22;20012;-90
2021/01/18 07:21:47;;;;;;;4.00;2.20;;;24.60;75.30;;;;;;6351291;22;19986;-91
2021/01/18 07:24:16;;;;;;;4.13;2.45;;;24.60;75.30;;;;;;6351221;22;20054;-88
2021/01/18 07:26:58;;;;;;;3.65;2.72;;;24.60;75.40;;;;;;6354912;22;19986;-88
2021/01/18 07:29:26;;;;;;;2.78;2.22;;;24.60;75.60;;;;;;6325831;22;20002;-87
2021/01/18 07:31:57;;;;;;;3.90;2.58;;;24.60;74.90;;;;;;6322848;22;19998;-90
2021/01/18 07:34:27;;;;;;;3.28;2.42;;;24.70;75.00;;;;;;6323694;22;19999;-89
2021/01/18 07:37:06;;;;;;;3.80;2.28;;;24.70;74.70;;;;;;6323422;22;19991;-89
2021/01/18 07:39:43;;;;;;;3.00;2.17;;;24.80;74.30;;;;;;6352362;22;19995;-89
2021/01/18 07:42:44;;;;;;;4.40;2.28;;;24.80;74.80;;;;;;6350985;22;19986;-90
2021/01/18 07:45:11;;;;;;;4.20;2.42;;;24.80;74.80;;;;;;6195114;23;20009;-89
2021/01/18 07:47:56;;;;;;;4.45;2.40;;;24.90;74.80;;;;;;6293772;22;20017;-90
2021/01/18 07:50:29;;;;;;;3.72;2.42;;;24.90;74.20;;;;;;6323811;22;20001;-90
2021/01/18 07:53:00;;;;;;;5.80;2.28;;;24.80;74.00;;;;;;6323164;22;19999;-90
2021/01/18 07:55:31;;;;;;;2.92;2.20;;;24.80;74.20;;;;;;6352051;22;19995;-90
2021/01/18 07:58:20;;;;;;;5.03;2.33;;;24.70;76.10;;;;;;6323212;22;20275;-88
2021/01/18 08:00:48;;;;;;;5.50;2.58;;;24.60;77.60;;;;;;6352176;22;20386;-88
2021/01/18 08:03:18;;;;;;;5.20;2.63;;;24.70;77.40;;;;;;6323855;22;20022;-90
2021/01/18 08:05:44;;;;;;;4.20;3.05;;;24.70;77.90;;;;;;6324345;22;19995;-89
2021/01/18 08:08:13;;;;;;;3.10;2.53;;;24.70;82.10;;;;;;6324143;22;19999;-91
2021/01/18 08:11:10;;;;;;;5.35;3.03;;;24.60;80.90;;;;;;6324094;22;20026;-90
2021/01/18 08:13:46;;;;;;;3.63;2.80;;;24.60;81.90;;;;;;6322841;22;20030;-89
2021/01/18 08:16:13;;;;;;;4.35;2.80;;;24.40;83.50;;;;;;6321819;22;19999;-89
2021/01/18 08:19:01;;;;;;;3.45;2.85;;;24.50;82.10;;;;;;6350660;22;20131;-90
2021/01/18 08:21:34;;;;;;;4.60;2.92;;;24.50;81.60;;;;;;6350860;22;19991;-90
2021/01/18 08:24:04;;;;;;;;;;;24.50;82.20;;;;;;6352874;22;20006;-89
2021/01/18 08:26:53;;;;;;;3.95;2.70;;;24.50;82.20;;;;;;6324684;22;19905;-90
2021/01/18 08:29:51;;;;;;;4.82;2.92;;;24.50;83.50;;;;;;6352163;22;20054;-90
2021/01/18 08:32:33;;;;;;;4.15;3.15;;;24.40;82.50;;;;;;6352048;22;20028;-91
2021/01/18 08:35:02;;;;;;;4.25;2.55;;;24.30;83.00;;;;;;6352660;22;20049;-90
2021/01/18 08:37:31;;;;;;;6.18;3.22;;;24.30;82.00;;;;;;6352257;22;19998;-90
2021/01/18 08:40:00;;;;;;;4.38;2.97;;;24.30;83.10;;;;;;6352326;22;19990;-89
2021/01/18 08:42:29;;;;;;;4.40;2.85;;;24.30;83.50;;;;;;6352036;22;20013;-90
2021/01/18 08:45:05;;;;;;;5.20;2.85;;;24.20;83.20;;;;;;6324556;22;20239;-90
2021/01/18 08:47:42;;;;;;;4.38;2.70;;;24.20;83.40;;;;;;6325657;22;19994;-88
2021/01/18 08:50:17;;;;;;;4.60;2.90;;;24.10;84.80;;;;;;6324949;22;20002;-90
2021/01/18 08:52:44;;;;;;;4.65;3.00;;;24.10;84.70;;;;;;6352385;22;19993;-90
2021/01/18 08:55:29;;;;;;;3.53;2.65;;;24.00;85.30;;;;;;6326119;22;19998;-90
2021/01/18 08:58:04;;;;;;;3.78;2.78;;;23.90;85.30;;;;;;6353656;22;20026;-87
2021/01/18 09:00:45;;;;;;;4.22;2.83;;;24.00;86.20;;;;;;6326196;22;19991;-89
2021/01/18 09:03:21;;;;;;;3.75;2.90;;;23.80;86.30;;;;;;6326648;22;20005;-88
2021/01/18 09:05:49;;;;;;;3.90;3.00;;;23.80;86.20;;;;;;6327584;22;20021;-90
2021/01/18 09:08:19;;;;;;;5.93;2.88;;;23.80;86.60;;;;;;6326437;22;20003;-91
2021/01/18 09:11:11;;;;;;;6.40;3.22;;;23.80;87.80;;;;;;6353893;22;19998;-90
2021/01/18 09:13:40;;;;;;;8.38;3.30;;;23.60;88.10;;;;;;6348728;22;20025;-90
2021/01/18 09:16:09;;;;;;;5.47;3.30;;;23.60;88.30;;;;;;6353959;22;19997;-89
2021/01/18 09:18:37;;;;;;;6.30;3.10;;;23.60;88.70;;;;;;6326532;22;20003;-88
2021/01/18 09:21:07;;;;;;;3.92;3.00;;;23.50;88.10;;;;;;6353605;22;20043;-87
2021/01/18 09:23:35;;;;;;;4.75;3.00;;;23.50;87.90;;;;;;6353897;22;19998;-88
2021/01/18 09:26:10;;;;;;;5.75;3.15;;;23.50;88.40;;;;;;6326692;22;20002;-90
2021/01/18 09:28:37;;;;;;;5.68;3.00;;;23.60;88.20;;;;;;6351811;22;19995;-89
2021/01/18 09:31:12;;;;;;;3.75;3.00;;;23.50;88.00;;;;;;6351343;22;19997;-90
2021/01/18 09:33:40;;;;;;;5.78;3.22;;;23.50;88.00;;;;;;6324549;22;20279;-89
2021/01/18 09:36:14;;;;;;;6.93;3.33;;;23.50;88.30;;;;;;6324676;22;20246;-90
2021/01/18 09:38:47;;;;;;;4.85;3.05;;;23.40;88.20;;;;;;6324665;22;20002;-90
2021/01/18 09:41:18;;;;;;;5.38;3.05;;;23.40;89.00;;;;;;6351912;22;20053;-90
2021/01/18 09:43:53;;;;;;;4.68;2.90;;;23.30;88.90;;;;;;6351936;22;20013;-90
2021/01/18 09:46:21;;;;;;;3.67;2.65;;;23.30;88.90;;;;;;6351936;22;20010;-89
2021/01/18 09:48:50;;;;;;;3.58;2.72;;;23.30;88.00;;;;;;6351444;22;20002;-89
2021/01/18 09:51:19;;;;;;;4.28;2.70;;;23.40;87.40;;;;;;6323966;22;20182;-90
2021/01/18 09:53:54;;;;;;;4.20;3.05;;;23.40;86.60;;;;;;6324450;22;20063;-90
2021/01/18 09:56:24;;;;;;;3.20;2.72;;;23.50;86.10;;;;;;6324614;22;19999;-90
2021/01/18 09:59:06;;;;;;;4.45;2.70;;;23.50;85.50;;;;;;6324075;22;20005;-91
2021/01/18 10:01:39;;;;;;;2.53;2.33;;;23.50;84.80;;;;;;6352371;22;20002;-90
2021/01/18 10:04:07;;;;;;;4.93;2.80;;;23.50;84.50;;;;;;6324769;22;20201;-90
2021/01/18 10:06:35;;;;;;;4.22;2.90;;;23.50;84.60;;;;;;6352498;22;20061;-90
2021/01/18 10:09:09;;;;;;;4.72;3.03;;;23.50;84.20;;;;;;6352349;22;20017;-90
2021/01/18 10:11:49;;;;;;;3.70;2.63;;;23.50;84.20;;;;;;6353010;22;20046;-88
2021/01/18 10:14:23;;;;;;;4.75;2.63;;;23.50;84.20;;;;;;6352280;22;20024;-90
2021/01/18 10:17:07;;;;;;;4.60;2.95;;;23.50;83.80;;;;;;6325356;22;20002;-89
2021/01/18 10:19:38;;;;;;;5.93;3.63;;;23.50;84.10;;;;;;6324631;22;20055;-90
2021/01/18 10:22:15;;;;;;;4.03;3.00;;;23.50;83.70;;;;;;6352809;22;19997;-89
2021/01/18 10:24:42;;;;;;;4.68;2.97;;;23.40;84.00;;;;;;6352429;22;20279;-90
2021/01/18 10:27:15;;;;;;;4.32;3.03;;;23.50;83.80;;;;;;6329432;22;19999;-91
2021/01/18 10:29:42;;;;;;;4.05;2.55;;;23.50;83.70;;;;;;6327875;22;20191;-92
2021/01/18 10:32:10;;;;;;;5.65;2.70;;;23.50;83.70;;;;;;6325599;22;19999;-92
2021/01/18 10:34:37;;;;;;;7.90;2.65;;;23.50;83.40;;;;;;6325717;22;20002;-91
2021/01/18 10:37:18;;;;;;;5.97;2.80;;;23.50;83.40;;;;;;6352371;22;19995;-90
2021/01/18 10:39:47;;;;;;;2.85;2.25;;;23.50;83.60;;;;;;6351972;22;19995;-90
2021/01/18 10:42:16;;;;;;;4.88;3.05;;;23.50;83.70;;;;;;6324829;22;20011;-91
2021/01/18 10:44:57;;;;;;;4.72;3.13;;;23.50;83.90;;;;;;6324185;22;20132;-92
2021/01/18 10:47:28;;;;;;;5.93;2.80;;;23.50;84.20;;;;;;6324259;22;20007;-91
2021/01/18 10:50:00;;;;;;;3.67;2.92;;;23.40;84.60;;;;;;6327459;22;19994;-92
2021/01/18 10:52:48;;;;;;;3.33;2.70;;;23.40;84.50;;;;;;6353455;22;19995;-90
2021/01/18 10:55:23;;;;;;;3.92;3.03;;;23.40;84.40;;;;;;6326231;22;20032;-91
2021/01/18 10:57:55;;;;;;;4.63;3.40;;;23.50;84.60;;;;;;6351904;22;19995;-91
2021/01/18 11:00:23;;;;;;;4.22;3.30;;;23.50;84.60;;;;;;6325490;22;19995;-91
2021/01/18 11:03:04;;;;;;;5.05;3.50;;;23.40;85.00;;;;;;6354474;22;19991;-91
2021/01/18 11:05:57;;;;;;;5.00;2.60;;;23.40;85.00;;;;;;6324536;22;20244;-91
2021/01/18 11:08:30;;;;;;;4.03;3.05;;;23.40;84.50;;;;;;6347492;22;19998;-89
2021/01/18 11:10:56;;;;;;;3.97;2.97;;;23.40;84.30;;;;;;6354981;22;20175;-90
2021/01/18 11:13:28;;;;;;;5.65;2.85;;;23.30;83.80;;;;;;6356276;22;20001;-91
2021/01/18 11:16:17;;;;;;;4.55;2.80;;;23.40;83.60;;;;;;6352685;22;20147;-92
2021/01/18 11:18:44;;;;;;;4.28;2.53;;;23.30;84.10;;;;;;6353674;22;20054;-90
2021/01/18 11:21:11;;;;;;;6.72;2.70;;;23.30;83.70;;;;;;6323076;22;19999;-90
2021/01/18 11:23:41;;;;;;;6.03;2.70;;;23.30;82.90;;;;;;6326583;22;20060;-90
2021/01/18 11:26:08;;;;;;;3.17;2.30;;;23.30;82.30;;;;;;6324810;22;20169;-91
2021/01/18 11:28:34;;;;;;;4.38;3.00;;;23.40;82.50;;;;;;6324134;22;19998;-91
2021/01/18 11:31:02;;;;;;;4.22;2.58;;;23.40;82.40;;;;;;6352470;22;20050;-90
2021/01/18 11:33:29;;;;;;;5.10;2.35;;;23.40;82.80;;;;;;6325186;22;20018;-91
2021/01/18 11:35:56;;;;;;;6.05;2.80;;;23.50;82.20;;;;;;6324491;22;20006;-90
2021/01/18 11:38:25;;;;;;;6.47;2.90;;;23.60;81.80;;;;;;6353188;22;19995;-92
2021/01/18 11:40:52;;;;;;;2.97;2.15;;;23.70;81.10;;;;;;6324298;22;19991;-92
2021/01/18 11:43:19;;;;;;;9.32;2.70;;;23.80;81.00;;;;;;6351466;22;19987;-92
2021/01/18 11:45:45;;;;;;;3.67;2.40;;;23.80;80.90;;;;;;6322540;22;20029;-92
2021/01/18 11:48:12;;;;;;;4.88;2.60;;;23.90;80.60;;;;;;6350225;22;19991;-92
2021/01/18 11:50:39;;;;;;;4.32;2.60;;;24.00;79.60;;;;;;6351698;22;20021;-92
2021/01/18 11:53:11;;;;;;;5.28;2.95;;;24.10;79.30;;;;;;6323138;22;20001;-93
2021/01/18 11:55:41;;;;;;;9.80;5.57;;;24.20;78.40;;;;;;6322825;22;20002;-92
2021/01/18 11:58:08;;;;;;;6.55;4.45;;;24.20;77.50;;;;;;6323272;22;20002;-91
2021/01/18 12:00:37;;;;;;;7.88;3.00;;;24.30;78.30;;;;;;6324146;22;20014;-92
2021/01/18 12:03:04;;;;;;;4.63;3.08;;;24.40;77.50;;;;;;6323350;22;19998;-92
2021/01/18 12:05:31;;;;;;;6.70;3.47;;;24.40;77.60;;;;;;6325200;22;20232;-90
2021/01/18 12:08:02;;;;;;;12.23;4.10;;;24.50;77.80;;;;;;6300881;22;20196;-91
2021/01/18 12:10:33;;;;;;;7.75;3.90;;;24.60;78.10;;;;;;6326411;22;20192;-91
2021/01/18 12:13:04;;;;;;;8.32;3.60;;;24.70;78.20;;;;;;6300817;22;20029;-91
2021/01/18 12:15:31;;;;;;;6.03;3.00;;;24.80;77.80;;;;;;6326536;22;20037;-92
2021/01/18 12:18:01;;;;;;;10.18;3.13;;;25.00;75.80;;;;;;6324694;22;19999;-91
2021/01/18 12:20:29;;;;;;;5.03;2.90;;;25.20;75.90;;;;;;6351360;22;20334;-92
2021/01/18 12:23:05;;;;;;;4.15;2.90;;;25.40;75.80;;;;;;6351805;22;19991;-93
2021/01/18 12:25:37;;;;;;;7.03;3.05;;;25.70;74.90;;;;;;6324548;22;20016;-90
2021/01/18 12:28:06;;;;;;;3.90;2.67;;;25.90;74.80;;;;;;6297754;22;20018;-90
2021/01/18 12:30:38;;;;;;;6.03;2.60;;;26.10;74.80;;;;;;6325653;22;20005;-91
2021/01/18 12:33:11;;;;;;;4.75;2.53;;;26.30;73.90;;;;;;6351388;22;20033;-92
2021/01/18 12:35:38;;;;;;;5.75;2.53;;;26.50;73.10;;;;;;6353611;22;20053;-90
2021/01/18 12:38:05;;;;;;;3.53;2.15;;;26.80;72.70;;;;;;6298397;22;20003;-91
2021/01/18 12:40:35;;;;;;;7.65;3.10;;;27.10;72.60;;;;;;6350897;22;20359;-92
2021/01/18 12:43:03;;;;;;;7.18;3.22;;;27.30;72.30;;;;;;6328872;22;20003;-89
2021/01/18 12:45:32;;;;;;;4.65;2.90;;;27.00;72.70;;;;;;6324610;22;20011;-93
2021/01/18 12:48:02;;;;;;;10.07;2.85;;;26.70;73.40;;;;;;6328587;22;19999;-93
2021/01/18 12:50:32;;;;;;;4.30;2.60;;;26.50;73.50;;;;;;6330063;22;19994;-94
2021/01/18 12:53:01;;;;;;;10.02;2.70;;;26.50;73.90;;;;;;6322847;22;20077;-93
2021/01/18 12:55:31;;;;;;;6.90;2.70;;;26.50;73.70;;;;;;6325836;22;20041;-91
2021/01/18 12:58:09;;;;;;;10.02;2.60;;;26.60;73.60;;;;;;6325477;22;19994;-92
2021/01/18 13:00:36;;;;;;;6.07;2.22;;;26.90;73.40;;;;;;6325804;22;20001;-92
2021/01/18 13:03:02;;;;;;;6.63;2.80;;;26.80;70.70;;;;;;6327388;22;20161;-91
2021/01/18 13:05:49;;;;;;;4.57;2.58;;;26.80;71.70;;;;;;6325851;22;20045;-93
2021/01/18 13:08:15;;;;;;;5.47;2.47;;;26.80;71.60;;;;;;6323633;22;20045;-93
2021/01/18 13:10:42;;;;;;;4.93;2.80;;;26.90;71.20;;;;;;6324057;22;19995;-93
2021/01/18 13:13:12;;;;;;;4.68;2.70;;;26.80;72.00;;;;;;6325747;22;20186;-92
2021/01/18 13:15:38;;;;;;;7.32;2.50;;;26.70;71.20;;;;;;6330345;22;20098;-91
2021/01/18 13:21:24;;;;;;;4.80;2.50;;;27.20;70.70;;;;;;6333458;22;20018;-91
2021/01/18 13:23:55;;;;;;;4.90;2.78;;;27.40;72.30;;;;;;6332333;22;20011;-91
2021/01/18 13:26:37;;;;;;;6.88;3.53;;;27.80;71.90;;;;;;6332270;22;20002;-91
2021/01/18 13:29:10;;;;;;;6.10;3.33;;;28.00;72.70;;;;;;6355431;22;20242;-91
2021/01/18 13:31:58;;;;;;;7.00;3.00;;;27.80;71.90;;;;;;6327808;22;20014;-91
2021/01/18 13:34:34;;;;;;;5.07;3.05;;;27.90;71.70;;;;;;6296103;22;20003;-93
2021/01/18 13:37:00;;;;;;;5.07;3.45;;;27.60;72.30;;;;;;6323551;22;20003;-91
2021/01/18 13:39:27;;;;;;;5.10;3.03;;;27.40;72.60;;;;;;6298384;22;20058;-93
2021/01/18 13:41:57;;;;;;;4.93;3.10;;;27.40;73.10;;;;;;6325475;22;19995;-92
2021/01/18 13:44:23;;;;;;;5.72;3.00;;;27.50;72.00;;;;;;6299306;22;20011;-90
2021/01/18 13:46:57;;;;;;;5.43;3.38;;;27.50;72.70;;;;;;6297801;22;19999;-92
2021/01/18 13:49:42;;;;;;;4.57;3.22;;;27.60;73.00;;;;;;6324643;22;20011;-92
2021/01/18 13:52:09;;;;;;;5.40;3.20;;;27.60;73.50;;;;;;6297216;22;19999;-93
2021/01/18 13:54:37;;;;;;;7.70;3.65;;;27.60;73.50;;;;;;6298388;22;20110;-93
2021/01/18 13:57:06;;;;;;;6.25;3.70;;;27.60;73.50;;;;;;6293442;22;19995;-92
2021/01/18 13:59:33;;;;;;;9.88;3.85;;;27.60;74.40;;;;;;6323400;22;19992;-91
2021/01/18 14:02:03;;;;;;;7.90;3.50;;;27.50;74.30;;;;;;6300039;22;20000;-91